Marble Falls' Hourly Summary for Thursday, March 16, 2017
Hour Temp
(f)
RH
(%)
Solar Rad.
(MJ/m2)
Rainfall
(in)
Wind
(mph)
3/16/2017 12:00 AM 62 84 0 0 4.4
3/16/2017 1:00 AM 62 84 0 0 7.14
3/16/2017 2:00 AM 62 87 0 0 7.14
3/16/2017 3:00 AM 62 95 0 0 5.87
3/16/2017 4:00 AM 61 99 0 0 5.87
3/16/2017 5:00 AM 60 100 0 0 4.25
3/16/2017 6:00 AM 59 100 0 0 3.45
3/16/2017 7:00 AM 58 100 0 0 3.47
3/16/2017 8:00 AM 58 100 0.08 0 3.47
3/16/2017 9:00 AM 60 100 0.24 0 5.53
3/16/2017 10:00 AM 61 100 0.28 0 5.53
3/16/2017 11:00 AM 63 100 0.44 0 6.26
3/16/2017 12:00 PM 65 100 0.54 0 6.26
3/16/2017 1:00 PM 67 100 0.63 0 6.45
3/16/2017 2:00 PM 69 99 1.03 0 6.97
3/16/2017 3:00 PM 73 77 1.05 0 9.07
3/16/2017 4:00 PM 75 63 1.15 0 9.42
3/16/2017 5:00 PM 76 54 1.15 0 9.42
3/16/2017 6:00 PM 76 52 1.11 0 10.51
3/16/2017 7:00 PM 76 55 0.7 0 10.51
3/16/2017 8:00 PM 74 60 0.15 0 7.79
3/16/2017 9:00 PM 71 70 0 0 4.63
3/16/2017 10:00 PM 70 79 0 0 4.4
3/16/2017 11:00 PM 69 80 0 0 5.45
Data Summary 66 84 8.55 0.00 6.39